createdAt,value
2023-04-05T03:59:01.050Z,0.00
2023-04-05T04:00:00.955Z,0.00
2023-04-05T04:01:00.939Z,0.00
2023-04-05T04:02:01.017Z,0.00
2023-04-05T04:03:01.023Z,0.00
2023-04-05T04:04:00.955Z,0.00
2023-04-05T04:05:00.965Z,0.00
2023-04-05T04:06:00.942Z,0.00
2023-04-05T04:07:00.901Z,0.00
2023-04-05T04:08:00.902Z,0.00
2023-04-05T04:09:00.911Z,0.00
2023-04-05T04:10:00.877Z,0.00
2023-04-05T04:11:00.879Z,0.00
2023-04-05T04:12:00.876Z,0.00
2023-04-05T04:13:00.860Z,0.00
2023-04-05T04:14:00.869Z,0.00
2023-04-05T04:15:00.859Z,0.00
2023-04-05T04:16:00.896Z,0.00
2023-04-05T04:17:00.837Z,0.00
2023-04-05T04:18:00.890Z,0.00
2023-04-05T04:19:00.827Z,0.00
2023-04-05T04:20:00.835Z,0.00
2023-04-05T04:21:00.827Z,0.00
2023-04-05T04:22:00.819Z,0.00
2023-04-05T04:23:00.812Z,0.00
2023-04-05T04:24:00.883Z,0.00
2023-04-05T04:25:00.807Z,0.00
2023-04-05T04:26:00.824Z,0.00
2023-04-05T04:27:00.794Z,0.00
2023-04-05T04:28:00.790Z,4.00
2023-04-05T04:29:00.776Z,0.00
2023-04-05T04:30:00.789Z,0.00
2023-04-05T04:31:00.818Z,4.00
2023-04-05T04:32:00.810Z,0.00
2023-04-05T04:33:00.853Z,4.00
2023-04-05T04:34:00.776Z,4.00
2023-04-05T04:35:00.761Z,8.00
2023-04-05T04:36:00.796Z,8.00
2023-04-05T04:37:00.870Z,8.00
2023-04-05T04:38:00.760Z,8.00
2023-04-05T04:39:00.750Z,8.00
2023-04-05T04:40:00.741Z,12.00
2023-04-05T04:41:00.756Z,12.00
2023-04-05T04:42:00.723Z,16.00
2023-04-05T04:43:00.728Z,20.00
2023-04-05T04:44:00.739Z,24.00
2023-04-05T04:45:00.722Z,24.00
2023-04-05T04:46:00.730Z,28.00
2023-04-05T04:47:00.731Z,32.00
2023-04-05T04:48:00.713Z,36.00
2023-04-05T04:49:00.704Z,40.00
2023-04-05T04:50:00.703Z,48.00
2023-04-05T04:51:00.702Z,56.00
2023-04-05T04:52:00.680Z,60.00
2023-04-05T04:53:00.687Z,68.00
2023-04-05T04:54:00.691Z,72.00
2023-04-05T04:55:00.672Z,80.00
2023-04-05T04:56:00.664Z,88.00
2023-04-05T04:57:00.670Z,96.00
2023-04-05T04:58:00.663Z,108.00
2023-04-05T04:59:00.690Z,112.00
2023-04-05T05:00:00.645Z,124.00
2023-04-05T05:01:00.656Z,136.00
2023-04-05T05:02:00.647Z,144.00
2023-04-05T05:03:00.681Z,152.00
2023-04-05T05:04:00.716Z,164.00
2023-04-05T05:05:00.637Z,176.00
2023-04-05T05:06:00.628Z,188.00
2023-04-05T05:07:00.619Z,196.00
2023-04-05T05:08:00.625Z,212.00
2023-04-05T05:09:00.633Z,220.00
2023-04-05T05:10:00.640Z,232.00
2023-04-05T05:11:00.610Z,248.00
2023-04-05T05:12:00.617Z,256.00
2023-04-05T05:13:00.593Z,268.00
2023-04-05T05:14:00.592Z,284.00
2023-04-05T05:15:00.617Z,292.00
2023-04-05T05:16:00.613Z,304.00
2023-04-05T05:17:00.661Z,316.00
2023-04-05T05:18:00.662Z,324.00
2023-04-05T05:19:00.612Z,340.00
2023-04-05T05:20:00.563Z,348.00
2023-04-05T05:21:00.566Z,364.00
2023-04-05T05:22:00.560Z,376.00
2023-04-05T05:23:00.564Z,384.00
2023-04-05T05:24:00.565Z,400.00
2023-04-05T05:25:00.549Z,408.00
2023-04-05T05:26:00.548Z,420.00
2023-04-05T05:27:00.551Z,432.00
2023-04-05T05:28:00.557Z,444.00
2023-04-05T05:29:00.529Z,452.00
2023-04-05T05:30:00.521Z,464.00
2023-04-05T05:31:00.553Z,476.00
2023-04-05T05:32:00.554Z,488.00
2023-04-05T05:33:00.542Z,496.00
2023-04-05T05:34:00.515Z,504.00
2023-04-05T05:35:00.521Z,516.00
2023-04-05T05:36:00.545Z,524.00
2023-04-05T05:37:00.501Z,536.00
2023-04-05T05:38:00.499Z,544.00
2023-04-05T05:39:00.485Z,552.00
2023-04-05T05:40:00.513Z,568.00
2023-04-05T05:41:00.486Z,576.00
2023-04-05T05:42:00.469Z,588.00
2023-04-05T05:43:00.484Z,596.00
2023-04-05T05:44:00.470Z,604.00
2023-04-05T05:45:00.463Z,620.00
2023-04-05T05:46:00.519Z,628.00
2023-04-05T05:47:00.467Z,636.00
2023-04-05T05:48:00.475Z,692.00
2023-04-05T05:49:00.458Z,984.00
2023-04-05T05:50:00.444Z,1284.00
2023-04-05T05:51:00.458Z,1452.00
2023-04-05T05:52:00.442Z,1516.00
2023-04-05T05:53:01.861Z,1576.00
2023-04-05T05:54:00.426Z,1628.00
2023-04-05T05:55:00.463Z,1672.00
2023-04-05T05:56:00.422Z,1712.00
2023-04-05T05:57:00.453Z,1756.00
2023-04-05T05:58:00.413Z,1796.00
2023-04-05T05:59:00.460Z,1844.00
2023-04-05T06:00:00.408Z,1888.00
2023-04-05T06:01:00.433Z,1936.00
2023-04-05T06:02:00.424Z,1972.00
2023-04-05T06:03:00.449Z,2012.00
2023-04-05T06:04:00.522Z,2044.00
2023-04-05T06:05:00.468Z,2068.00
2023-04-05T06:06:00.400Z,2096.00
2023-04-05T06:07:00.402Z,2128.00
2023-04-05T06:08:00.381Z,2156.00
2023-04-05T06:09:00.374Z,2184.00
2023-04-05T06:10:00.379Z,2212.00
2023-04-05T06:11:00.364Z,2240.00
2023-04-05T06:12:00.354Z,2276.00
2023-04-05T06:13:00.359Z,2308.00
2023-04-05T06:14:00.369Z,2340.00
2023-04-05T06:15:00.383Z,2376.00
2023-04-05T06:16:00.379Z,2404.00
2023-04-05T06:17:00.381Z,2440.00
2023-04-05T06:18:00.386Z,2476.00
2023-04-05T06:19:00.352Z,2512.00
2023-04-05T06:20:00.393Z,2544.00
2023-04-05T06:21:00.321Z,2580.00
2023-04-05T06:22:00.342Z,2608.00
2023-04-05T06:23:00.323Z,2648.00
2023-04-05T06:24:00.314Z,2684.00
2023-04-05T06:25:00.320Z,2712.00
2023-04-05T06:26:00.306Z,2744.00
2023-04-05T06:27:00.339Z,2784.00
2023-04-05T06:28:00.298Z,2816.00
2023-04-05T06:29:00.294Z,2844.00
2023-04-05T06:30:00.382Z,2880.00
2023-04-05T06:31:00.291Z,2916.00
2023-04-05T06:32:00.387Z,2948.00
2023-04-05T06:33:00.320Z,2984.00
2023-04-05T06:34:00.288Z,3020.00
2023-04-05T06:35:00.506Z,3052.00
2023-04-05T06:36:00.296Z,3088.00
2023-04-05T06:37:00.277Z,3120.00
2023-04-05T06:38:00.271Z,3148.00
2023-04-05T06:39:00.270Z,3180.00
2023-04-05T06:40:00.261Z,3208.00
2023-04-05T06:41:00.350Z,3244.00
2023-04-05T06:42:00.256Z,3272.00
2023-04-05T06:43:00.284Z,3296.00
2023-04-05T06:44:00.335Z,3340.00
2023-04-05T06:45:00.287Z,3364.00
2023-04-05T06:46:00.375Z,3400.00
2023-04-05T06:47:00.336Z,3424.00
2023-04-05T06:48:00.355Z,3448.00
2023-04-05T06:49:02.394Z,3480.00
2023-04-05T06:50:00.301Z,3512.00
2023-04-05T06:51:00.324Z,3532.00
2023-04-05T06:52:00.328Z,3560.00
2023-04-05T06:53:00.223Z,3584.00
2023-04-05T06:54:00.208Z,3612.00
2023-04-05T06:55:00.222Z,3632.00
2023-04-05T06:56:00.204Z,3652.00
2023-04-05T06:57:01.823Z,3680.00
2023-04-05T06:58:00.246Z,3704.00
2023-04-05T06:59:00.368Z,3732.00
2023-04-05T07:00:00.248Z,3748.00
2023-04-05T07:01:00.220Z,3776.00
2023-04-05T07:02:00.194Z,3796.00
2023-04-05T07:03:00.243Z,3820.00
2023-04-05T07:04:00.238Z,3832.00
2023-04-05T07:05:00.184Z,3856.00
2023-04-05T07:06:00.252Z,3880.00
2023-04-05T07:07:00.176Z,3900.00
2023-04-05T07:08:00.313Z,3916.00
2023-04-05T07:09:00.179Z,3928.00
2023-04-05T07:10:00.197Z,3952.00
2023-04-05T07:11:00.176Z,3956.00
2023-04-05T07:12:00.157Z,3972.00
2023-04-05T07:13:00.166Z,3988.00
2023-04-05T07:14:00.189Z,4000.00
2023-04-05T07:15:00.157Z,4008.00
2023-04-05T07:16:00.207Z,4016.00
2023-04-05T07:17:00.154Z,4012.00
2023-04-05T07:18:00.257Z,4016.00
2023-04-05T07:19:00.174Z,4024.00
2023-04-05T07:20:00.169Z,4032.00
2023-04-05T07:21:00.266Z,4044.00
2023-04-05T07:22:00.176Z,4056.00
2023-04-05T07:23:00.140Z,4068.00
2023-04-05T07:24:00.140Z,4072.00
2023-04-05T07:25:00.164Z,4084.00
2023-04-05T07:26:00.304Z,4096.00
2023-04-05T07:27:00.146Z,4108.00
2023-04-05T07:28:00.137Z,4116.00
2023-04-05T07:29:00.158Z,4124.00
2023-04-05T07:30:00.145Z,4132.00
2023-04-05T07:31:00.149Z,4140.00
2023-04-05T07:32:00.173Z,4156.00
2023-04-05T07:33:00.177Z,4160.00
2023-04-05T07:34:00.159Z,4176.00
2023-04-05T07:35:00.178Z,4188.00
2023-04-05T07:36:00.163Z,4196.00
2023-04-05T07:37:00.114Z,4200.00
2023-04-05T07:38:00.139Z,4204.00
2023-04-05T07:39:00.344Z,4208.00
2023-04-05T07:40:00.170Z,4212.00
2023-04-05T07:41:00.127Z,4212.00
2023-04-05T07:42:00.109Z,4224.00
2023-04-05T07:43:00.122Z,4212.00
2023-04-05T07:44:00.171Z,4240.00
2023-04-05T07:45:00.134Z,4244.00
2023-04-05T07:46:00.208Z,4252.00
2023-04-05T07:47:00.117Z,4248.00
2023-04-05T07:48:00.183Z,4244.00
2023-04-05T07:49:00.119Z,4240.00
2023-04-05T07:50:00.150Z,4236.00
2023-04-05T07:51:00.139Z,4236.00
2023-04-05T07:52:00.091Z,4228.00
2023-04-05T07:53:00.097Z,4220.00
2023-04-05T07:54:01.860Z,4212.00
2023-04-05T07:55:00.122Z,4204.00
2023-04-05T07:56:00.132Z,4192.00
2023-04-05T07:57:00.121Z,4184.00
2023-04-05T07:58:00.129Z,4176.00
2023-04-05T07:59:00.263Z,4160.00
2023-04-05T08:00:00.112Z,4152.00
2023-04-05T08:01:00.109Z,4144.00
2023-04-05T08:02:08.291Z,4140.00
2023-04-05T08:03:02.144Z,4124.00
2023-04-05T08:04:00.191Z,4112.00
2023-04-05T08:05:00.272Z,4104.00
2023-04-05T08:08:32.578Z,4056.00
2023-04-05T08:09:32.585Z,4044.00
2023-04-05T08:10:32.576Z,4024.00
2023-04-05T08:11:32.570Z,4012.00
2023-04-05T08:12:32.592Z,3996.00
2023-04-05T08:13:32.561Z,3980.00
2023-04-05T08:14:32.595Z,3968.00
2023-04-05T08:15:32.567Z,3956.00
2023-04-05T08:16:32.640Z,3936.00
2023-04-05T08:17:32.576Z,3912.00
2023-04-05T08:18:32.584Z,3896.00
2023-04-05T08:19:32.569Z,3888.00
2023-04-05T08:20:32.585Z,3864.00
2023-04-05T08:21:32.583Z,3856.00
2023-04-05T08:22:32.566Z,3832.00
2023-04-05T08:23:32.580Z,3816.00
2023-04-05T08:24:32.563Z,3804.00
2023-04-05T08:25:32.571Z,3784.00
2023-04-05T08:26:32.554Z,3768.00
2023-04-05T08:27:32.546Z,3756.00
2023-04-05T08:28:32.566Z,3732.00
2023-04-05T08:29:32.554Z,3712.00
2023-04-05T08:30:32.561Z,3708.00
2023-04-05T08:31:32.584Z,3688.00
2023-04-05T08:32:32.593Z,3680.00
2023-04-05T08:33:32.537Z,3660.00
2023-04-05T08:34:32.564Z,3644.00
2023-04-05T08:35:32.581Z,3632.00
2023-04-05T08:36:32.552Z,3608.00
2023-04-05T08:37:32.533Z,3600.00
2023-04-05T08:38:32.564Z,3588.00
2023-04-05T08:39:32.533Z,3572.00
2023-04-05T08:40:32.544Z,3552.00
2023-04-05T08:41:32.538Z,3536.00
2023-04-05T08:42:32.555Z,3520.00
2023-04-05T08:43:32.545Z,3500.00
2023-04-05T08:44:32.556Z,3492.00
2023-04-05T08:45:32.562Z,3480.00
2023-04-05T08:46:32.565Z,3464.00
2023-04-05T08:47:32.573Z,3452.00
2023-04-05T08:48:32.533Z,3440.00
2023-04-05T08:49:32.538Z,3424.00
2023-04-05T08:50:32.523Z,3408.00
2023-04-05T08:51:32.526Z,3400.00
2023-04-05T08:52:32.542Z,3384.00
2023-04-05T08:53:32.533Z,3372.00
2023-04-05T08:54:32.540Z,3360.00
2023-04-05T08:55:32.532Z,3348.00
2023-04-05T08:56:32.536Z,3336.00
2023-04-05T08:57:32.527Z,3324.00
2023-04-05T08:58:32.528Z,3312.00
2023-04-05T08:59:32.753Z,3300.00
2023-04-05T09:00:32.513Z,3284.00
2023-04-05T09:01:32.543Z,3268.00
2023-04-05T09:02:32.664Z,3256.00
2023-04-05T09:03:32.643Z,3248.00
2023-04-05T09:04:32.517Z,3236.00
2023-04-05T09:05:32.521Z,3224.00
2023-04-05T09:06:32.514Z,3216.00
2023-04-05T09:07:32.556Z,3200.00
2023-04-05T09:08:32.538Z,3184.00
2023-04-05T09:09:32.517Z,3180.00
2023-04-05T09:10:32.516Z,3172.00
2023-04-05T09:11:32.549Z,3168.00
2023-04-05T09:12:32.542Z,3168.00
2023-04-05T09:13:32.509Z,3160.00
2023-04-05T09:14:32.504Z,3156.00
2023-04-05T09:15:32.503Z,3148.00
2023-04-05T09:16:32.526Z,3140.00
2023-04-05T09:17:32.676Z,3144.00
2023-04-05T09:18:32.599Z,3116.00
2023-04-05T09:19:32.504Z,3088.00
2023-04-05T09:20:32.504Z,3088.00
2023-04-05T09:21:32.504Z,3100.00
2023-04-05T09:22:32.539Z,3096.00
2023-04-05T09:23:32.530Z,3096.00
2023-04-05T09:24:32.506Z,3092.00
2023-04-05T09:25:32.518Z,3096.00
2023-04-05T09:26:32.633Z,3088.00
2023-04-05T09:27:32.526Z,3088.00
2023-04-05T09:28:32.512Z,3084.00
2023-04-05T09:29:32.496Z,3080.00
2023-04-05T09:30:32.502Z,3080.00
2023-04-05T09:31:32.559Z,3080.00
2023-04-05T09:32:32.538Z,3080.00
2023-04-05T09:33:32.518Z,3084.00
2023-04-05T09:34:32.552Z,3080.00
2023-04-05T09:35:32.529Z,3072.00
2023-04-05T09:36:32.498Z,3052.00
2023-04-05T09:37:32.499Z,3056.00
2023-04-05T09:38:32.498Z,3040.00
2023-04-05T09:39:32.522Z,3036.00
2023-04-05T09:40:32.498Z,3036.00
2023-04-05T09:41:32.534Z,3048.00
2023-04-05T09:42:32.494Z,3064.00
2023-04-05T09:43:32.499Z,3072.00
2023-04-05T09:44:32.499Z,3064.00
2023-04-05T09:45:32.511Z,3080.00
2023-04-05T09:46:32.585Z,3092.00
2023-04-05T09:47:32.562Z,3112.00
2023-04-05T09:48:32.491Z,3128.00
2023-04-05T09:49:32.511Z,3148.00
2023-04-05T09:50:32.535Z,3172.00
2023-04-05T09:51:32.539Z,3172.00
2023-04-05T09:52:32.498Z,3176.00
2023-04-05T09:53:32.494Z,3196.00
2023-04-05T09:54:32.493Z,3204.00
2023-04-05T09:55:32.516Z,3200.00
2023-04-05T09:56:32.513Z,3176.00
2023-04-05T09:57:32.497Z,3176.00
2023-04-05T09:58:32.495Z,3220.00
2023-04-05T09:59:32.599Z,2180.00
2023-04-05T10:00:32.533Z,2896.00
2023-04-05T10:01:32.557Z,3208.00
2023-04-05T10:13:19.191Z,3412.00
2023-04-05T10:14:19.267Z,3460.00
2023-04-05T10:15:19.116Z,3464.00
2023-04-05T10:16:19.141Z,3488.00
2023-04-05T10:17:19.145Z,3516.00
2023-04-05T10:18:19.145Z,3544.00
2023-04-05T10:19:19.104Z,3608.00
2023-04-05T10:20:19.197Z,3652.00
2023-04-05T10:21:19.111Z,3700.00
2023-04-05T10:22:19.102Z,3736.00
2023-04-05T10:23:19.094Z,3752.00
2023-04-05T10:24:19.107Z,3772.00
2023-04-05T10:25:19.109Z,3784.00
2023-04-05T10:26:19.152Z,3800.00
2023-04-05T10:27:19.109Z,3800.00
2023-04-05T10:28:19.108Z,3800.00
2023-04-05T10:29:19.170Z,3780.00
2023-04-05T10:30:19.108Z,3748.00
2023-04-05T10:31:30.580Z,3744.00
2023-04-05T10:32:19.159Z,3732.00
2023-04-05T10:33:19.150Z,3748.00
2023-04-05T10:34:19.092Z,3788.00
2023-04-05T10:35:19.094Z,3856.00
2023-04-05T10:36:19.140Z,4012.00
2023-04-05T10:37:19.102Z,4092.00
2023-04-05T10:38:19.107Z,4128.00
2023-04-05T10:39:19.137Z,4136.00
2023-04-05T10:40:19.111Z,4116.00
2023-04-05T10:41:19.128Z,4096.00
2023-04-05T10:42:19.129Z,4108.00
2023-04-05T10:43:19.107Z,4108.00
2023-04-05T10:44:26.161Z,4084.00
2023-04-05T10:45:19.143Z,4072.00
2023-04-05T10:46:19.154Z,4056.00
2023-04-05T10:47:19.213Z,4056.00
2023-04-05T10:48:19.112Z,4064.00
2023-04-05T10:49:19.162Z,3664.00
2023-04-05T10:50:19.184Z,4024.00
2023-04-05T10:51:19.115Z,4072.00
2023-04-05T10:52:19.164Z,2888.00
2023-04-05T10:53:19.172Z,4028.00
2023-04-05T10:54:19.119Z,4016.00
2023-04-05T10:55:19.182Z,4052.00
2023-04-05T10:56:19.140Z,3132.00
2023-04-05T10:57:19.170Z,4204.00
2023-04-05T10:59:19.205Z,4144.00
2023-04-05T11:00:19.196Z,4196.00
2023-04-05T11:01:19.181Z,2420.00
2023-04-05T11:02:19.147Z,2256.00
2023-04-05T11:03:19.222Z,2340.00
2023-04-05T11:04:19.170Z,2820.00
2023-04-05T11:05:19.204Z,2348.00
2023-04-05T11:06:19.153Z,4452.00
2023-04-05T11:07:19.147Z,4012.00
2023-04-05T11:08:19.153Z,4140.00
2023-04-05T11:09:19.160Z,4196.00
2023-04-05T11:10:19.169Z,4312.00
2023-04-05T11:11:19.189Z,4400.00
2023-04-05T11:12:19.166Z,4512.00
2023-04-05T11:13:19.165Z,4568.00
2023-04-05T11:14:19.183Z,4612.00
2023-04-05T11:15:19.166Z,4624.00
2023-04-05T11:16:19.213Z,4652.00
2023-04-05T11:17:19.183Z,4700.00
2023-04-05T11:18:19.184Z,4712.00
2023-04-05T11:19:19.174Z,4772.00
2023-04-05T11:20:19.203Z,4816.00
2023-04-05T11:21:19.171Z,4896.00
2023-04-05T11:22:19.176Z,4960.00
2023-04-05T11:23:19.213Z,4988.00
2023-04-05T11:24:19.191Z,3904.00
2023-04-05T11:25:19.193Z,5068.00
2023-04-05T11:26:19.183Z,5200.00
2023-04-05T11:27:19.191Z,5308.00
2023-04-05T11:28:19.215Z,5376.00
2023-04-05T11:29:19.193Z,5576.00
2023-04-05T11:30:19.196Z,5692.00
2023-04-05T11:31:19.502Z,5708.00
2023-04-05T11:32:19.203Z,5728.00
2023-04-05T11:33:19.241Z,5744.00
2023-04-05T11:34:19.214Z,5780.00
2023-04-05T11:35:19.223Z,5856.00
2023-04-05T11:36:19.227Z,5916.00
2023-04-05T11:37:19.214Z,5968.00
2023-04-05T11:38:19.222Z,5980.00
2023-04-05T11:39:19.273Z,6048.00
2023-04-05T11:40:19.237Z,6080.00
2023-04-05T11:41:19.232Z,6188.00
2023-04-05T11:42:19.235Z,6244.00
2023-04-05T11:43:19.243Z,6296.00
2023-04-05T11:44:19.245Z,6304.00
2023-04-05T11:45:19.243Z,6344.00
2023-04-05T11:46:19.403Z,6360.00
2023-04-05T11:47:19.262Z,6400.00
2023-04-05T11:48:19.254Z,6464.00
2023-04-05T11:49:19.329Z,6508.00
2023-04-05T11:50:19.252Z,6568.00
2023-04-05T11:51:19.262Z,6572.00
2023-04-05T11:52:19.266Z,6576.00
2023-04-05T11:53:19.271Z,6616.00
2023-04-05T11:54:19.285Z,6672.00
2023-04-05T11:55:19.274Z,6720.00
2023-04-05T11:56:19.291Z,6776.00
2023-04-05T11:57:19.281Z,6872.00
2023-04-05T11:58:19.336Z,6952.00
2023-04-05T11:59:19.374Z,7060.00
2023-04-05T12:00:19.292Z,7164.00
2023-04-05T12:01:21.013Z,7256.00
2023-04-05T12:02:19.310Z,7312.00
2023-04-05T12:03:19.388Z,7356.00
2023-04-05T12:04:19.336Z,7416.00
2023-04-05T12:05:19.492Z,7444.00
2023-04-05T12:06:19.318Z,7528.00
2023-04-05T12:07:19.325Z,7544.00
2023-04-05T12:08:19.333Z,7604.00
2023-04-05T12:09:19.339Z,7680.00
2023-04-05T12:10:19.354Z,7756.00
2023-04-05T12:11:19.354Z,7852.00
2023-04-05T12:12:19.346Z,7896.00
2023-04-05T12:13:19.350Z,7980.00
2023-04-05T12:14:19.356Z,8076.00
2023-04-05T12:15:19.462Z,8212.00
2023-04-05T12:16:19.454Z,8348.00
2023-04-05T12:17:19.368Z,8420.00
2023-04-05T12:18:19.371Z,8476.00
2023-04-05T12:19:19.415Z,8512.00
2023-04-05T12:20:19.424Z,8604.00
2023-04-05T12:21:19.420Z,8660.00
2023-04-05T12:22:19.404Z,8836.00
2023-04-05T12:23:19.389Z,8964.00
2023-04-05T12:24:19.423Z,9052.00
2023-04-05T12:25:19.416Z,9108.00
2023-04-05T12:26:19.415Z,9128.00
2023-04-05T12:27:19.442Z,9172.00
2023-04-05T12:28:19.419Z,9192.00
2023-04-05T12:29:19.426Z,9292.00
2023-04-05T12:30:19.487Z,9424.00
2023-04-05T12:31:19.439Z,9528.00
2023-04-05T12:32:21.093Z,9672.00
2023-04-05T12:33:19.449Z,9744.00
2023-04-05T12:34:19.460Z,9884.00
2023-04-05T12:35:19.472Z,10076.00
2023-04-05T12:36:19.480Z,10240.00
2023-04-05T12:37:19.514Z,10364.00
2023-04-05T12:38:19.489Z,10536.00
2023-04-05T12:39:19.490Z,10620.00
2023-04-05T12:40:19.516Z,10712.00
2023-04-05T12:41:19.488Z,10740.00
2023-04-05T12:42:19.503Z,10816.00
2023-04-05T12:43:19.530Z,10888.00
2023-04-05T12:45:52.064Z,11160.00
2023-04-05T12:46:52.047Z,11252.00
2023-04-05T12:47:52.112Z,11380.00
2023-04-05T12:48:52.064Z,11500.00
2023-04-05T12:49:52.065Z,11624.00
2023-04-05T12:50:52.126Z,11716.00
2023-04-05T12:51:52.080Z,11740.00
2023-04-05T12:52:52.115Z,11820.00
2023-04-05T12:53:52.086Z,11896.00
2023-04-05T12:54:52.101Z,11976.00
2023-04-05T12:55:52.103Z,12072.00
2023-04-05T12:56:52.137Z,12112.00
2023-04-05T12:57:52.128Z,12180.00
2023-04-05T12:58:52.147Z,12184.00
2023-04-05T12:59:52.117Z,12288.00
2023-04-05T13:00:52.148Z,12368.00
2023-04-05T13:01:52.463Z,12484.00
2023-04-05T13:02:52.245Z,12608.00
2023-04-05T13:03:54.918Z,12716.00
2023-04-05T13:04:52.170Z,12800.00
2023-04-05T13:05:52.161Z,12836.00
2023-04-05T13:06:52.164Z,12964.00
2023-04-05T13:07:52.176Z,13036.00
2023-04-05T13:08:52.209Z,13268.00
2023-04-05T13:09:52.214Z,13484.00
2023-04-05T13:10:52.195Z,13788.00
2023-04-05T13:11:52.201Z,14220.00
2023-04-05T13:12:52.218Z,14584.00
2023-04-05T13:13:52.231Z,14796.00
2023-04-05T13:14:52.228Z,15216.00
2023-04-05T13:15:52.526Z,15376.00
2023-04-05T13:16:52.236Z,15528.00
2023-04-05T13:17:52.334Z,15864.00
2023-04-05T13:18:52.298Z,16236.00
2023-04-05T13:19:52.272Z,16524.00
2023-04-05T13:20:52.266Z,16656.00
2023-04-05T13:21:52.277Z,16644.00
2023-04-05T13:22:52.293Z,16648.00
2023-04-05T13:23:52.305Z,16724.00
2023-04-05T13:24:52.327Z,16884.00
2023-04-05T13:25:52.301Z,17348.00
2023-04-05T13:26:52.308Z,18144.00
2023-04-05T13:27:52.319Z,21952.00
2023-04-05T13:28:52.354Z,44832.00
2023-04-05T13:29:52.395Z,59744.00
2023-04-05T13:30:54.131Z,59648.00
2023-04-05T13:31:52.381Z,60704.00
2023-04-05T13:32:52.404Z,59360.00
2023-04-05T13:33:52.356Z,56192.00
2023-04-05T13:34:52.375Z,54176.00
2023-04-05T13:35:52.403Z,52928.00
2023-04-05T13:36:52.378Z,54336.00
2023-04-05T13:37:52.392Z,52800.00
2023-04-05T13:38:52.403Z,48064.00
2023-04-05T13:39:52.409Z,43072.00
2023-04-05T13:40:52.448Z,35072.00
2023-04-05T13:41:52.421Z,26176.00
2023-04-05T13:42:52.431Z,20832.00
2023-04-05T13:43:52.437Z,19616.00
2023-04-05T13:44:52.455Z,19232.00
2023-04-05T13:45:52.487Z,19072.00
2023-04-05T13:46:52.459Z,18912.00
2023-04-05T13:47:52.486Z,18912.00
2023-04-05T13:48:52.477Z,19104.00
2023-04-05T13:49:52.488Z,19744.00
2023-04-05T13:50:52.514Z,21760.00
2023-04-05T13:51:52.518Z,27680.00
2023-04-05T13:52:52.506Z,38464.00
2023-04-05T13:53:52.543Z,49056.00
2023-04-05T13:55:02.623Z,57952.00
2023-04-05T13:55:52.550Z,60416.00
2023-04-05T13:56:52.562Z,58144.00
2023-04-05T13:57:52.582Z,58560.00
2023-04-05T13:58:52.615Z,59424.00
2023-04-05T13:59:52.649Z,59392.00
2023-04-05T14:00:52.588Z,60480.00
2023-04-05T14:01:52.669Z,61376.00
2023-04-05T14:02:52.696Z,64192.00
2023-04-05T14:03:52.744Z,64992.00
2023-04-05T14:04:52.639Z,42240.00
2023-04-05T14:05:55.228Z,64352.00
2023-04-05T14:06:52.631Z,61824.00
2023-04-05T14:07:52.635Z,62464.00
2023-04-05T14:08:52.635Z,60896.00
2023-04-05T14:09:52.642Z,62560.00
2023-04-05T14:10:52.656Z,62272.00
2023-04-05T14:11:52.671Z,61792.00
2023-04-05T14:12:52.681Z,62848.00
2023-04-05T14:13:52.673Z,63392.00
2023-04-05T14:14:52.688Z,62464.00
2023-04-05T14:15:52.782Z,62912.00
2023-04-05T14:16:52.693Z,62560.00
2023-04-05T14:17:52.817Z,61504.00
2023-04-05T14:18:52.715Z,61824.00
2023-04-05T14:19:52.726Z,63456.00
2023-04-05T14:20:52.753Z,61824.00
2023-04-05T14:21:52.738Z,59264.00
2023-04-05T14:22:52.763Z,60512.00
2023-04-05T14:23:52.765Z,61184.00
2023-04-05T14:24:52.863Z,61120.00
2023-04-05T14:25:52.782Z,60416.00
2023-04-05T14:26:52.818Z,59744.00
2023-04-05T14:27:52.788Z,61024.00
2023-04-05T14:28:52.826Z,62912.00
2023-04-05T14:29:52.798Z,61024.00
2023-04-05T14:30:52.832Z,59488.00
2023-04-05T14:31:52.864Z,60000.00
2023-04-05T14:32:52.859Z,58944.00
2023-04-05T14:33:52.840Z,58432.00
2023-04-05T14:34:52.861Z,58400.00
2023-04-05T14:35:52.899Z,58240.00
2023-04-05T14:36:52.861Z,58624.00
2023-04-05T14:37:52.874Z,57536.00
2023-04-05T14:38:52.911Z,56960.00
2023-04-05T14:39:52.887Z,58496.00
2023-04-05T14:40:52.900Z,57664.00
2023-04-05T14:41:53.003Z,55072.00
2023-04-05T14:42:52.912Z,54944.00
2023-04-05T14:43:52.912Z,55072.00
2023-04-05T14:44:52.963Z,54656.00
2023-04-05T14:45:52.999Z,54464.00
2023-04-05T14:46:52.941Z,53536.00
2023-04-05T14:47:52.954Z,53024.00
2023-04-05T14:48:52.958Z,51456.00
2023-04-05T14:49:52.958Z,50112.00
2023-04-05T14:50:52.965Z,49536.00
2023-04-05T14:51:52.973Z,48992.00
2023-04-05T14:52:52.981Z,48544.00
2023-04-05T14:53:53.008Z,46880.00
2023-04-05T14:54:52.990Z,48000.00
2023-04-05T14:55:53.013Z,47584.00
2023-04-05T14:56:53.012Z,45312.00
2023-04-05T14:57:53.012Z,45632.00
2023-04-05T14:58:53.064Z,46464.00
2023-04-05T14:59:53.038Z,45696.00
2023-04-05T15:00:53.093Z,46016.00
2023-04-05T15:01:53.041Z,46720.00
2023-04-05T15:02:53.142Z,45696.00
2023-04-05T15:03:53.937Z,44704.00
2023-04-05T15:04:53.082Z,46560.00
2023-04-05T15:05:53.089Z,46944.00
2023-04-05T15:06:53.075Z,46496.00
2023-04-05T15:07:53.081Z,44928.00
2023-04-05T15:08:53.088Z,43040.00
2023-04-05T15:09:53.105Z,41888.00
2023-04-05T15:10:53.100Z,41568.00
2023-04-05T15:11:55.070Z,41440.00
2023-04-05T15:12:53.113Z,39744.00
2023-04-05T15:13:53.161Z,38432.00
2023-04-05T15:14:53.149Z,36608.00
2023-04-05T15:15:53.134Z,36640.00
2023-04-05T15:16:53.198Z,36320.00
2023-04-05T15:17:53.203Z,34912.00
2023-04-05T15:18:53.157Z,35904.00
2023-04-05T15:19:53.168Z,33984.00
2023-04-05T15:20:53.169Z,32992.00
2023-04-05T15:21:53.167Z,34912.00
2023-04-05T15:22:53.175Z,34400.00
2023-04-05T15:23:53.183Z,32288.00
2023-04-05T15:24:53.187Z,31648.00
2023-04-05T15:25:53.206Z,31136.00
2023-04-05T15:26:53.193Z,26912.00
2023-04-05T15:27:53.204Z,23584.00
2023-04-05T15:28:53.205Z,24032.00
2023-04-05T15:29:53.210Z,24672.00
2023-04-05T15:30:53.243Z,25504.00
2023-04-05T15:31:53.256Z,24864.00
2023-04-05T15:32:53.284Z,25088.00
2023-04-05T15:33:53.250Z,18688.00
2023-04-05T15:34:53.247Z,8284.00
2023-04-05T15:35:53.281Z,4780.00
2023-04-05T15:36:53.244Z,4464.00
2023-04-05T15:37:53.254Z,4276.00
2023-04-05T15:38:53.245Z,4132.00
2023-04-05T15:39:53.262Z,4016.00
2023-04-05T15:40:53.257Z,3908.00
2023-04-05T15:41:53.262Z,3812.00
2023-04-05T15:42:53.252Z,3724.00
2023-04-05T15:43:53.309Z,3640.00
2023-04-05T15:44:53.264Z,3560.00
2023-04-05T15:45:53.325Z,3484.00
2023-04-05T15:46:53.353Z,3408.00
2023-04-05T15:47:53.325Z,3336.00
2023-04-05T15:48:53.304Z,3264.00
2023-04-05T15:49:53.276Z,3200.00
2023-04-05T15:50:53.278Z,3128.00
2023-04-05T15:51:53.288Z,3064.00
2023-04-05T15:52:53.311Z,3004.00
2023-04-05T15:53:53.292Z,2952.00
2023-04-05T15:54:53.325Z,2900.00
2023-04-05T15:55:53.288Z,2852.00
2023-04-05T15:56:53.294Z,2808.00
2023-04-05T15:57:53.291Z,2764.00
2023-04-05T15:58:53.316Z,2720.00
2023-04-05T15:59:53.312Z,2684.00
2023-04-05T16:00:53.314Z,2644.00
2023-04-05T16:12:31.261Z,2276.00
2023-04-05T16:13:31.211Z,2248.00
2023-04-05T16:14:31.212Z,2216.00
2023-04-05T16:15:31.208Z,2188.00
2023-04-05T16:16:38.637Z,2160.00
2023-04-05T16:17:31.335Z,2132.00
2023-04-05T16:18:31.203Z,2108.00
2023-04-05T16:19:31.210Z,2080.00
2023-04-05T16:20:31.198Z,2052.00
2023-04-05T16:21:31.194Z,2024.00
2023-04-05T16:22:31.202Z,1996.00
2023-04-05T16:23:31.193Z,1964.00
2023-04-05T16:24:31.430Z,1936.00
2023-04-05T16:25:31.182Z,1908.00
2023-04-05T16:26:31.192Z,1876.00
2023-04-05T16:27:31.196Z,1844.00
2023-04-05T16:28:31.215Z,1820.00
2023-04-05T16:29:31.189Z,1792.00
2023-04-05T16:30:31.181Z,1768.00
2023-04-05T16:31:31.226Z,1744.00